sensor_id;sensor_type;location;lat;lon;timestamp;P1;durP1;ratioP1;P2;durP2;ratioP2
3811;SDS011;1921;49.368;11.068;2023-04-01T00:00:30;48.63;;;43.83;;
3811;SDS011;1921;49.368;11.068;2023-04-01T00:02:56;48.87;;;44.07;;
3811;SDS011;1921;49.368;11.068;2023-04-01T00:05:22;52.13;;;44.37;;
3811;SDS011;1921;49.368;11.068;2023-04-01T00:07:49;48.40;;;43.80;;
3811;SDS011;1921;49.368;11.068;2023-04-01T00:10:15;49.47;;;44.30;;
3811;SDS011;1921;49.368;11.068;2023-04-01T00:12:41;48.93;;;44.03;;
3811;SDS011;1921;49.368;11.068;2023-04-01T00:15:07;48.50;;;43.80;;
3811;SDS011;1921;49.368;11.068;2023-04-01T00:17:35;48.83;;;44.13;;
3811;SDS011;1921;49.368;11.068;2023-04-01T00:20:01;48.60;;;44.00;;
3811;SDS011;1921;49.368;11.068;2023-04-01T00:22:28;48.60;;;43.90;;
3811;SDS011;1921;49.368;11.068;2023-04-01T00:24:54;49.00;;;44.13;;
3811;SDS011;1921;49.368;11.068;2023-04-01T00:27:20;48.60;;;43.93;;
3811;SDS011;1921;49.368;11.068;2023-04-01T00:29:46;48.70;;;44.00;;
3811;SDS011;1921;49.368;11.068;2023-04-01T00:32:12;48.77;;;44.00;;
3811;SDS011;1921;49.368;11.068;2023-04-01T00:34:38;48.97;;;44.20;;
3811;SDS011;1921;49.368;11.068;2023-04-01T00:37:05;48.23;;;43.60;;
3811;SDS011;1921;49.368;11.068;2023-04-01T00:39:32;48.67;;;43.97;;
3811;SDS011;1921;49.368;11.068;2023-04-01T00:41:59;48.53;;;43.83;;
3811;SDS011;1921;49.368;11.068;2023-04-01T00:44:27;48.73;;;44.00;;
3811;SDS011;1921;49.368;11.068;2023-04-01T00:46:57;48.93;;;44.03;;
3811;SDS011;1921;49.368;11.068;2023-04-01T00:49:23;48.30;;;43.70;;
3811;SDS011;1921;49.368;11.068;2023-04-01T00:51:54;48.50;;;43.90;;
3811;SDS011;1921;49.368;11.068;2023-04-01T00:54:24;48.53;;;43.83;;
3811;SDS011;1921;49.368;11.068;2023-04-01T00:56:53;48.33;;;43.63;;
3811;SDS011;1921;49.368;11.068;2023-04-01T00:59:34;48.60;;;43.83;;
3811;SDS011;1921;49.368;11.068;2023-04-01T01:02:06;48.53;;;43.90;;
3811;SDS011;1921;49.368;11.068;2023-04-01T01:04:36;48.40;;;43.70;;
3811;SDS011;1921;49.368;11.068;2023-04-01T01:12:31;48.40;;;43.70;;
3811;SDS011;1921;49.368;11.068;2023-04-01T01:23:42;48.23;;;43.63;;
3811;SDS011;1921;49.368;11.068;2023-04-01T01:26:52;48.93;;;44.07;;
3811;SDS011;1921;49.368;11.068;2023-04-01T01:35:22;48.70;;;44.10;;
3811;SDS011;1921;49.368;11.068;2023-04-01T01:37:59;48.80;;;44.00;;
3811;SDS011;1921;49.368;11.068;2023-04-01T01:40:36;48.33;;;43.63;;
3811;SDS011;1921;49.368;11.068;2023-04-01T01:43:08;48.63;;;43.67;;
3811;SDS011;1921;49.368;11.068;2023-04-01T01:45:39;48.20;;;43.60;;
3811;SDS011;1921;49.368;11.068;2023-04-01T01:48:11;48.50;;;43.80;;
3811;SDS011;1921;49.368;11.068;2023-04-01T01:50:37;48.83;;;43.93;;
3811;SDS011;1921;49.368;11.068;2023-04-01T01:53:06;48.30;;;43.70;;
3811;SDS011;1921;49.368;11.068;2023-04-01T01:55:36;48.47;;;43.80;;
3811;SDS011;1921;49.368;11.068;2023-04-01T01:58:10;48.53;;;43.87;;
3811;SDS011;1921;49.368;11.068;2023-04-01T02:01:24;48.60;;;43.90;;
3811;SDS011;1921;49.368;11.068;2023-04-01T02:03:53;48.70;;;43.70;;
3811;SDS011;1921;49.368;11.068;2023-04-01T02:06:22;48.60;;;43.90;;
3811;SDS011;1921;49.368;11.068;2023-04-01T02:08:54;48.80;;;44.10;;
3811;SDS011;1921;49.368;11.068;2023-04-01T02:11:32;48.03;;;43.43;;
3811;SDS011;1921;49.368;11.068;2023-04-01T02:14:35;48.27;;;43.67;;
3811;SDS011;1921;49.368;11.068;2023-04-01T02:17:18;48.50;;;43.70;;
3811;SDS011;1921;49.368;11.068;2023-04-01T02:19:52;48.33;;;43.63;;
3811;SDS011;1921;49.368;11.068;2023-04-01T02:22:28;48.33;;;43.73;;
3811;SDS011;1921;49.368;11.068;2023-04-01T02:25:00;48.30;;;43.70;;
3811;SDS011;1921;49.368;11.068;2023-04-01T02:27:31;48.60;;;43.90;;
3811;SDS011;1921;49.368;11.068;2023-04-01T02:29:57;48.93;;;44.13;;
3811;SDS011;1921;49.368;11.068;2023-04-01T02:32:24;48.73;;;43.93;;
3811;SDS011;1921;49.368;11.068;2023-04-01T02:34:51;48.07;;;43.47;;
3811;SDS011;1921;49.368;11.068;2023-04-01T02:37:18;48.40;;;43.80;;
3811;SDS011;1921;49.368;11.068;2023-04-01T02:39:43;48.63;;;43.73;;
3811;SDS011;1921;49.368;11.068;2023-04-01T02:42:09;48.53;;;43.90;;
3811;SDS011;1921;49.368;11.068;2023-04-01T02:44:35;48.23;;;43.63;;
3811;SDS011;1921;49.368;11.068;2023-04-01T02:47:01;48.07;;;43.47;;
3811;SDS011;1921;49.368;11.068;2023-04-01T02:49:27;48.30;;;43.70;;
3811;SDS011;1921;49.368;11.068;2023-04-01T02:51:53;48.83;;;44.03;;
3811;SDS011;1921;49.368;11.068;2023-04-01T02:54:19;48.57;;;43.83;;
3811;SDS011;1921;49.368;11.068;2023-04-01T02:56:45;48.27;;;43.60;;
3811;SDS011;1921;49.368;11.068;2023-04-01T02:59:11;52.23;;;44.00;;
3811;SDS011;1921;49.368;11.068;2023-04-01T03:01:37;48.57;;;43.87;;
3811;SDS011;1921;49.368;11.068;2023-04-01T03:04:03;48.27;;;43.67;;
3811;SDS011;1921;49.368;11.068;2023-04-01T03:06:29;48.50;;;43.80;;
3811;SDS011;1921;49.368;11.068;2023-04-01T03:08:55;47.87;;;43.37;;
3811;SDS011;1921;49.368;11.068;2023-04-01T03:11:21;48.30;;;43.70;;
3811;SDS011;1921;49.368;11.068;2023-04-01T03:13:47;48.30;;;43.70;;
3811;SDS011;1921;49.368;11.068;2023-04-01T03:16:13;48.33;;;43.63;;
3811;SDS011;1921;49.368;11.068;2023-04-01T03:18:39;48.80;;;44.00;;
3811;SDS011;1921;49.368;11.068;2023-04-01T03:21:12;48.67;;;43.67;;
3811;SDS011;1921;49.368;11.068;2023-04-01T03:23:43;48.70;;;44.00;;
3811;SDS011;1921;49.368;11.068;2023-04-01T03:26:09;48.87;;;44.03;;
3811;SDS011;1921;49.368;11.068;2023-04-01T03:28:35;49.13;;;44.03;;
3811;SDS011;1921;49.368;11.068;2023-04-01T03:31:01;48.50;;;43.70;;
3811;SDS011;1921;49.368;11.068;2023-04-01T03:33:27;48.30;;;43.60;;
3811;SDS011;1921;49.368;11.068;2023-04-01T03:35:53;48.63;;;43.93;;
3811;SDS011;1921;49.368;11.068;2023-04-01T03:38:19;48.50;;;43.90;;
3811;SDS011;1921;49.368;11.068;2023-04-01T03:40:45;49.20;;;44.30;;
3811;SDS011;1921;49.368;11.068;2023-04-01T03:43:10;48.60;;;43.90;;
3811;SDS011;1921;49.368;11.068;2023-04-01T03:45:46;48.20;;;43.60;;
3811;SDS011;1921;49.368;11.068;2023-04-01T03:48:14;48.73;;;43.80;;
3811;SDS011;1921;49.368;11.068;2023-04-01T03:50:40;48.43;;;43.73;;
3811;SDS011;1921;49.368;11.068;2023-04-01T03:53:07;48.67;;;44.03;;
3811;SDS011;1921;49.368;11.068;2023-04-01T03:55:32;48.70;;;43.90;;
3811;SDS011;1921;49.368;11.068;2023-04-01T03:58:00;49.30;;;44.20;;
3811;SDS011;1921;49.368;11.068;2023-04-01T04:00:27;61.27;;;43.90;;
3811;SDS011;1921;49.368;11.068;2023-04-01T04:02:56;48.70;;;43.60;;
3811;SDS011;1921;49.368;11.068;2023-04-01T04:05:22;49.00;;;44.10;;
3811;SDS011;1921;49.368;11.068;2023-04-01T04:07:49;49.07;;;44.17;;
3811;SDS011;1921;49.368;11.068;2023-04-01T04:10:16;48.87;;;44.17;;
3811;SDS011;1921;49.368;11.068;2023-04-01T04:12:41;48.30;;;43.70;;
3811;SDS011;1921;49.368;11.068;2023-04-01T04:15:07;48.27;;;43.57;;
3811;SDS011;1921;49.368;11.068;2023-04-01T04:17:34;48.50;;;43.90;;
3811;SDS011;1921;49.368;11.068;2023-04-01T04:20:00;48.47;;;43.77;;
3811;SDS011;1921;49.368;11.068;2023-04-01T04:22:26;49.40;;;44.13;;
3811;SDS011;1921;49.368;11.068;2023-04-01T04:24:52;48.40;;;43.70;;
3811;SDS011;1921;49.368;11.068;2023-04-01T04:27:18;48.63;;;43.83;;
3811;SDS011;1921;49.368;11.068;2023-04-01T04:29:43;48.57;;;43.90;;
3811;SDS011;1921;49.368;11.068;2023-04-01T04:32:09;48.83;;;44.13;;
3811;SDS011;1921;49.368;11.068;2023-04-01T04:34:35;48.37;;;43.77;;
3811;SDS011;1921;49.368;11.068;2023-04-01T04:37:01;48.63;;;43.93;;
3811;SDS011;1921;49.368;11.068;2023-04-01T04:39:27;48.83;;;43.90;;
3811;SDS011;1921;49.368;11.068;2023-04-01T04:41:53;48.40;;;43.80;;
3811;SDS011;1921;49.368;11.068;2023-04-01T04:44:18;48.40;;;43.80;;
3811;SDS011;1921;49.368;11.068;2023-04-01T04:46:44;47.97;;;43.40;;
3811;SDS011;1921;49.368;11.068;2023-04-01T04:49:10;48.47;;;43.77;;
3811;SDS011;1921;49.368;11.068;2023-04-01T04:51:36;48.80;;;44.07;;
3811;SDS011;1921;49.368;11.068;2023-04-01T04:54:02;48.30;;;43.70;;
3811;SDS011;1921;49.368;11.068;2023-04-01T04:56:29;48.10;;;43.50;;
3811;SDS011;1921;49.368;11.068;2023-04-01T04:58:55;48.47;;;43.87;;
3811;SDS011;1921;49.368;11.068;2023-04-01T05:01:21;48.30;;;43.70;;
3811;SDS011;1921;49.368;11.068;2023-04-01T05:03:48;48.67;;;43.87;;
3811;SDS011;1921;49.368;11.068;2023-04-01T05:06:14;48.47;;;43.77;;
3811;SDS011;1921;49.368;11.068;2023-04-01T05:08:42;48.47;;;43.67;;
3811;SDS011;1921;49.368;11.068;2023-04-01T05:11:10;48.37;;;43.77;;
3811;SDS011;1921;49.368;11.068;2023-04-01T05:13:39;48.23;;;43.63;;
3811;SDS011;1921;49.368;11.068;2023-04-01T05:16:09;48.30;;;43.60;;
3811;SDS011;1921;49.368;11.068;2023-04-01T05:18:36;48.30;;;43.60;;
3811;SDS011;1921;49.368;11.068;2023-04-01T05:21:02;49.20;;;44.50;;
3811;SDS011;1921;49.368;11.068;2023-04-01T05:23:30;48.83;;;44.03;;
3811;SDS011;1921;49.368;11.068;2023-04-01T05:25:57;48.43;;;43.80;;
3811;SDS011;1921;49.368;11.068;2023-04-01T05:28:22;49.27;;;44.47;;
3811;SDS011;1921;49.368;11.068;2023-04-01T05:30:48;48.40;;;43.70;;
3811;SDS011;1921;49.368;11.068;2023-04-01T05:33:14;48.03;;;43.43;;
3811;SDS011;1921;49.368;11.068;2023-04-01T05:35:40;48.70;;;43.80;;
3811;SDS011;1921;49.368;11.068;2023-04-01T05:38:06;48.30;;;43.70;;
3811;SDS011;1921;49.368;11.068;2023-04-01T05:40:32;49.00;;;43.90;;
3811;SDS011;1921;49.368;11.068;2023-04-01T05:42:59;48.67;;;43.97;;
3811;SDS011;1921;49.368;11.068;2023-04-01T05:45:25;48.50;;;43.80;;
3811;SDS011;1921;49.368;11.068;2023-04-01T05:47:52;48.40;;;43.70;;
3811;SDS011;1921;49.368;11.068;2023-04-01T05:50:17;48.33;;;43.70;;
3811;SDS011;1921;49.368;11.068;2023-04-01T05:52:43;48.60;;;43.80;;
3811;SDS011;1921;49.368;11.068;2023-04-01T05:55:09;48.90;;;43.87;;
3811;SDS011;1921;49.368;11.068;2023-04-01T05:57:35;48.33;;;43.73;;
3811;SDS011;1921;49.368;11.068;2023-04-01T06:00:01;48.47;;;43.77;;
3811;SDS011;1921;49.368;11.068;2023-04-01T06:02:29;48.80;;;44.00;;
3811;SDS011;1921;49.368;11.068;2023-04-01T06:05:02;48.70;;;43.90;;
3811;SDS011;1921;49.368;11.068;2023-04-01T06:07:41;48.73;;;43.93;;
3811;SDS011;1921;49.368;11.068;2023-04-01T06:10:32;48.80;;;44.00;;
3811;SDS011;1921;49.368;11.068;2023-04-01T06:13:34;48.60;;;43.90;;
3811;SDS011;1921;49.368;11.068;2023-04-01T06:19:05;48.93;;;44.13;;
3811;SDS011;1921;49.368;11.068;2023-04-01T06:25:07;49.50;;;44.60;;
3811;SDS011;1921;49.368;11.068;2023-04-01T06:30:33;48.77;;;43.97;;
3811;SDS011;1921;49.368;11.068;2023-04-01T06:33:03;49.50;;;44.70;;
3811;SDS011;1921;49.368;11.068;2023-04-01T06:36:02;49.17;;;44.33;;
3811;SDS011;1921;49.368;11.068;2023-04-01T06:41:54;49.40;;;44.30;;
3811;SDS011;1921;49.368;11.068;2023-04-01T06:51:06;49.20;;;44.30;;
3811;SDS011;1921;49.368;11.068;2023-04-01T06:56:25;49.80;;;44.63;;
3811;SDS011;1921;49.368;11.068;2023-04-01T06:59:02;49.60;;;44.60;;
3811;SDS011;1921;49.368;11.068;2023-04-01T07:01:51;49.40;;;44.47;;
3811;SDS011;1921;49.368;11.068;2023-04-01T07:04:23;50.20;;;45.10;;
3811;SDS011;1921;49.368;11.068;2023-04-01T07:09:57;49.93;;;44.80;;
3811;SDS011;1921;49.368;11.068;2023-04-01T07:15:17;50.40;;;45.00;;
3811;SDS011;1921;49.368;11.068;2023-04-01T07:17:45;49.90;;;44.77;;
3811;SDS011;1921;49.368;11.068;2023-04-01T07:20:20;50.47;;;45.17;;
3811;SDS011;1921;49.368;11.068;2023-04-01T07:22:53;50.83;;;45.50;;
3811;SDS011;1921;49.368;11.068;2023-04-01T07:25:27;50.17;;;45.00;;
3811;SDS011;1921;49.368;11.068;2023-04-01T07:28:11;49.87;;;44.77;;
3811;SDS011;1921;49.368;11.068;2023-04-01T07:30:52;49.97;;;44.87;;
3811;SDS011;1921;49.368;11.068;2023-04-01T07:33:45;50.20;;;45.00;;
3811;SDS011;1921;49.368;11.068;2023-04-01T07:39:20;50.30;;;45.03;;
3811;SDS011;1921;49.368;11.068;2023-04-01T07:48:30;50.60;;;45.30;;
3811;SDS011;1921;49.368;11.068;2023-04-01T07:51:18;50.57;;;45.27;;
3811;SDS011;1921;49.368;11.068;2023-04-01T07:54:18;50.93;;;45.60;;
3811;SDS011;1921;49.368;11.068;2023-04-01T08:02:42;50.67;;;45.27;;
3811;SDS011;1921;49.368;11.068;2023-04-01T08:05:53;51.10;;;45.70;;
3811;SDS011;1921;49.368;11.068;2023-04-01T08:15:11;50.70;;;45.30;;
3811;SDS011;1921;49.368;11.068;2023-04-01T08:18:17;51.13;;;45.73;;
3811;SDS011;1921;49.368;11.068;2023-04-01T08:21:31;50.77;;;45.40;;
3811;SDS011;1921;49.368;11.068;2023-04-01T08:24:11;51.83;;;45.97;;
3811;SDS011;1921;49.368;11.068;2023-04-01T08:27:11;51.17;;;45.57;;
3811;SDS011;1921;49.368;11.068;2023-04-01T08:32:56;52.67;;;45.70;;
3811;SDS011;1921;49.368;11.068;2023-04-01T08:35:47;51.27;;;45.67;;
3811;SDS011;1921;49.368;11.068;2023-04-01T08:38:20;51.00;;;45.60;;
3811;SDS011;1921;49.368;11.068;2023-04-01T08:41:00;51.50;;;45.90;;
3811;SDS011;1921;49.368;11.068;2023-04-01T08:49:40;50.73;;;45.37;;
3811;SDS011;1921;49.368;11.068;2023-04-01T09:00:46;51.13;;;45.70;;
3811;SDS011;1921;49.368;11.068;2023-04-01T09:03:41;51.50;;;45.90;;
3811;SDS011;1921;49.368;11.068;2023-04-01T09:26:50;51.00;;;45.60;;
3811;SDS011;1921;49.368;11.068;2023-04-01T09:29:39;50.67;;;45.37;;
3811;SDS011;1921;49.368;11.068;2023-04-01T09:38:52;50.90;;;45.60;;
3811;SDS011;1921;49.368;11.068;2023-04-01T09:41:51;51.10;;;45.70;;
3811;SDS011;1921;49.368;11.068;2023-04-01T09:51:00;51.07;;;45.67;;
3811;SDS011;1921;49.368;11.068;2023-04-01T10:12:28;50.67;;;45.40;;
3811;SDS011;1921;49.368;11.068;2023-04-01T10:38:19;49.87;;;44.83;;
3811;SDS011;1921;49.368;11.068;2023-04-01T10:50:45;50.20;;;45.10;;
3811;SDS011;1921;49.368;11.068;2023-04-01T11:02:42;49.67;;;44.67;;
3811;SDS011;1921;49.368;11.068;2023-04-01T11:11:55;51.03;;;45.13;;
3811;SDS011;1921;49.368;11.068;2023-04-01T11:14:45;49.57;;;44.67;;
3811;SDS011;1921;49.368;11.068;2023-04-01T11:21:59;49.60;;;44.60;;
3811;SDS011;1921;49.368;11.068;2023-04-01T11:27:37;48.97;;;44.07;;
3811;SDS011;1921;49.368;11.068;2023-04-01T11:42:30;49.77;;;44.50;;
3811;SDS011;1921;49.368;11.068;2023-04-01T11:45:37;49.37;;;44.37;;
3811;SDS011;1921;49.368;11.068;2023-04-01T11:51:13;49.83;;;44.83;;
3811;SDS011;1921;49.368;11.068;2023-04-01T11:57:23;49.73;;;44.53;;
3811;SDS011;1921;49.368;11.068;2023-04-01T12:00:42;50.10;;;45.00;;
3811;SDS011;1921;49.368;11.068;2023-04-01T12:06:30;49.80;;;44.70;;
3811;SDS011;1921;49.368;11.068;2023-04-01T12:12:15;50.07;;;44.87;;
3811;SDS011;1921;49.368;11.068;2023-04-01T12:15:00;49.83;;;44.83;;
3811;SDS011;1921;49.368;11.068;2023-04-01T12:17:44;50.00;;;45.00;;
3811;SDS011;1921;49.368;11.068;2023-04-01T12:20:34;49.77;;;44.67;;
3811;SDS011;1921;49.368;11.068;2023-04-01T12:23:41;49.83;;;44.73;;
3811;SDS011;1921;49.368;11.068;2023-04-01T12:30:02;50.40;;;45.00;;
3811;SDS011;1921;49.368;11.068;2023-04-01T12:33:23;49.87;;;44.77;;
3811;SDS011;1921;49.368;11.068;2023-04-01T12:36:10;49.87;;;44.67;;
3811;SDS011;1921;49.368;11.068;2023-04-01T12:39:01;50.20;;;45.10;;
3811;SDS011;1921;49.368;11.068;2023-04-01T12:45:02;50.00;;;44.90;;
3811;SDS011;1921;49.368;11.068;2023-04-01T12:48:01;49.60;;;44.60;;
3811;SDS011;1921;49.368;11.068;2023-04-01T12:54:34;49.23;;;44.33;;
3811;SDS011;1921;49.368;11.068;2023-04-01T13:00:45;49.53;;;44.57;;
3811;SDS011;1921;49.368;11.068;2023-04-01T13:04:06;49.70;;;44.73;;
3811;SDS011;1921;49.368;11.068;2023-04-01T13:07:07;50.07;;;44.97;;
3811;SDS011;1921;49.368;11.068;2023-04-01T13:09:52;49.33;;;44.43;;
3811;SDS011;1921;49.368;11.068;2023-04-01T13:16:11;49.53;;;44.57;;
3811;SDS011;1921;49.368;11.068;2023-04-01T13:22:03;50.17;;;45.07;;
3811;SDS011;1921;49.368;11.068;2023-04-01T13:25:03;49.53;;;44.47;;
3811;SDS011;1921;49.368;11.068;2023-04-01T13:27:48;50.03;;;44.87;;
3811;SDS011;1921;49.368;11.068;2023-04-01T13:33:54;49.87;;;44.77;;
3811;SDS011;1921;49.368;11.068;2023-04-01T13:36:28;50.10;;;45.00;;
3811;SDS011;1921;49.368;11.068;2023-04-01T13:45:14;49.70;;;44.70;;
3811;SDS011;1921;49.368;11.068;2023-04-01T13:53:51;49.60;;;44.57;;
3811;SDS011;1921;49.368;11.068;2023-04-01T13:59:25;50.13;;;44.93;;
3811;SDS011;1921;49.368;11.068;2023-04-01T14:31:41;49.77;;;44.77;;
3811;SDS011;1921;49.368;11.068;2023-04-01T14:34:34;49.80;;;44.80;;
3811;SDS011;1921;49.368;11.068;2023-04-01T14:37:38;49.50;;;44.53;;
3811;SDS011;1921;49.368;11.068;2023-04-01T14:49:49;48.83;;;44.10;;
3811;SDS011;1921;49.368;11.068;2023-04-01T14:52:28;49.07;;;44.27;;
3811;SDS011;1921;49.368;11.068;2023-04-01T14:55:01;49.00;;;44.20;;
3811;SDS011;1921;49.368;11.068;2023-04-01T14:57:57;48.93;;;44.13;;
3811;SDS011;1921;49.368;11.068;2023-04-01T15:00:46;48.73;;;43.93;;
3811;SDS011;1921;49.368;11.068;2023-04-01T15:06:45;49.10;;;44.30;;
3811;SDS011;1921;49.368;11.068;2023-04-01T15:16:07;48.97;;;44.17;;
3811;SDS011;1921;49.368;11.068;2023-04-01T15:24:22;49.23;;;44.37;;
3811;SDS011;1921;49.368;11.068;2023-04-01T15:27:14;49.53;;;44.53;;
3811;SDS011;1921;49.368;11.068;2023-04-01T15:33:08;49.50;;;44.50;;
3811;SDS011;1921;49.368;11.068;2023-04-01T15:38:48;49.33;;;44.43;;
3811;SDS011;1921;49.368;11.068;2023-04-01T15:41:24;49.90;;;44.90;;
3811;SDS011;1921;49.368;11.068;2023-04-01T15:53:18;49.43;;;44.50;;
3811;SDS011;1921;49.368;11.068;2023-04-01T15:56:22;49.47;;;44.50;;
3811;SDS011;1921;49.368;11.068;2023-04-01T16:02:43;49.57;;;44.57;;
3811;SDS011;1921;49.368;11.068;2023-04-01T16:05:42;49.37;;;44.43;;
3811;SDS011;1921;49.368;11.068;2023-04-01T16:11:51;49.37;;;44.47;;
3811;SDS011;1921;49.368;11.068;2023-04-01T16:23:28;49.23;;;44.33;;
3811;SDS011;1921;49.368;11.068;2023-04-01T16:34:16;49.33;;;44.43;;
3811;SDS011;1921;49.368;11.068;2023-04-01T16:37:09;49.50;;;44.50;;
3811;SDS011;1921;49.368;11.068;2023-04-01T16:45:53;49.17;;;44.27;;
3811;SDS011;1921;49.368;11.068;2023-04-01T16:51:46;49.40;;;44.40;;
3811;SDS011;1921;49.368;11.068;2023-04-01T16:56:55;49.33;;;44.43;;
3811;SDS011;1921;49.368;11.068;2023-04-01T16:59:40;49.20;;;44.30;;
3811;SDS011;1921;49.368;11.068;2023-04-01T17:02:13;49.77;;;44.77;;
3811;SDS011;1921;49.368;11.068;2023-04-01T17:04:45;49.50;;;44.60;;
3811;SDS011;1921;49.368;11.068;2023-04-01T17:07:40;49.53;;;44.63;;
3811;SDS011;1921;49.368;11.068;2023-04-01T17:10:22;49.30;;;44.40;;
3811;SDS011;1921;49.368;11.068;2023-04-01T17:16:04;49.37;;;44.47;;
3811;SDS011;1921;49.368;11.068;2023-04-01T17:24:52;48.93;;;44.13;;
3811;SDS011;1921;49.368;11.068;2023-04-01T17:30:44;49.10;;;44.10;;
3811;SDS011;1921;49.368;11.068;2023-04-01T17:37:00;48.93;;;44.13;;
3811;SDS011;1921;49.368;11.068;2023-04-01T17:39:42;49.20;;;44.30;;
3811;SDS011;1921;49.368;11.068;2023-04-01T17:42:40;49.27;;;44.37;;
3811;SDS011;1921;49.368;11.068;2023-04-01T17:45:28;49.40;;;44.40;;
3811;SDS011;1921;49.368;11.068;2023-04-01T17:51:04;49.73;;;44.63;;
3811;SDS011;1921;49.368;11.068;2023-04-01T17:56:22;50.00;;;44.90;;
3811;SDS011;1921;49.368;11.068;2023-04-01T17:59:26;49.87;;;44.70;;
3811;SDS011;1921;49.368;11.068;2023-04-01T18:13:17;49.70;;;44.60;;
3811;SDS011;1921;49.368;11.068;2023-04-01T18:16:28;49.53;;;44.53;;
3811;SDS011;1921;49.368;11.068;2023-04-01T18:22:24;49.70;;;44.60;;
3811;SDS011;1921;49.368;11.068;2023-04-01T18:25:22;49.33;;;44.43;;
3811;SDS011;1921;49.368;11.068;2023-04-01T18:33:48;49.27;;;44.37;;
3811;SDS011;1921;49.368;11.068;2023-04-01T18:39:17;48.93;;;44.13;;
3811;SDS011;1921;49.368;11.068;2023-04-01T18:42:08;48.97;;;44.13;;
3811;SDS011;1921;49.368;11.068;2023-04-01T18:53:28;48.93;;;44.13;;
3811;SDS011;1921;49.368;11.068;2023-04-01T18:56:30;49.10;;;44.30;;
3811;SDS011;1921;49.368;11.068;2023-04-01T19:01:47;48.87;;;44.07;;
3811;SDS011;1921;49.368;11.068;2023-04-01T19:04:31;49.73;;;44.73;;
3811;SDS011;1921;49.368;11.068;2023-04-01T19:07:21;49.57;;;44.60;;
3811;SDS011;1921;49.368;11.068;2023-04-01T19:10:12;49.30;;;44.43;;
3811;SDS011;1921;49.368;11.068;2023-04-01T19:13:03;49.00;;;44.20;;
3811;SDS011;1921;49.368;11.068;2023-04-01T19:21:35;49.13;;;44.33;;
3811;SDS011;1921;49.368;11.068;2023-04-01T19:27:03;49.47;;;44.53;;
3811;SDS011;1921;49.368;11.068;2023-04-01T19:30:15;49.03;;;44.23;;
3811;SDS011;1921;49.368;11.068;2023-04-01T19:33:00;49.77;;;44.77;;
3811;SDS011;1921;49.368;11.068;2023-04-01T19:36:30;49.10;;;44.30;;
3811;SDS011;1921;49.368;11.068;2023-04-01T19:38:41;49.20;;;44.40;;
3811;SDS011;1921;49.368;11.068;2023-04-01T19:41:41;49.33;;;44.47;;
3811;SDS011;1921;49.368;11.068;2023-04-01T19:49:38;49.67;;;44.67;;
3811;SDS011;1921;49.368;11.068;2023-04-01T19:52:32;49.00;;;44.30;;
3811;SDS011;1921;49.368;11.068;2023-04-01T19:58:14;49.37;;;44.57;;
3811;SDS011;1921;49.368;11.068;2023-04-01T20:01:10;49.23;;;44.33;;
3811;SDS011;1921;49.368;11.068;2023-04-01T20:04:02;49.47;;;44.57;;
3811;SDS011;1921;49.368;11.068;2023-04-01T20:07:04;49.10;;;44.30;;
3811;SDS011;1921;49.368;11.068;2023-04-01T20:15:20;49.23;;;44.43;;
3811;SDS011;1921;49.368;11.068;2023-04-01T20:17:57;49.07;;;44.27;;
3811;SDS011;1921;49.368;11.068;2023-04-01T20:20:28;49.40;;;44.40;;
3811;SDS011;1921;49.368;11.068;2023-04-01T20:25:58;48.97;;;43.97;;
3811;SDS011;1921;49.368;11.068;2023-04-01T20:28:38;49.50;;;44.60;;
3811;SDS011;1921;49.368;11.068;2023-04-01T20:34:12;49.07;;;44.33;;
3811;SDS011;1921;49.368;11.068;2023-04-01T20:56:47;48.70;;;43.93;;
3811;SDS011;1921;49.368;11.068;2023-04-01T20:59:45;48.27;;;43.67;;
3811;SDS011;1921;49.368;11.068;2023-04-01T21:03:38;48.70;;;44.00;;
3811;SDS011;1921;49.368;11.068;2023-04-01T21:05:55;48.50;;;43.80;;
3811;SDS011;1921;49.368;11.068;2023-04-01T21:14:35;48.63;;;43.93;;
3811;SDS011;1921;49.368;11.068;2023-04-01T21:17:17;48.33;;;43.73;;
3811;SDS011;1921;49.368;11.068;2023-04-01T21:20:41;48.33;;;43.73;;
3811;SDS011;1921;49.368;11.068;2023-04-01T21:23:21;48.60;;;44.00;;
3811;SDS011;1921;49.368;11.068;2023-04-01T21:26:31;48.57;;;43.90;;
3811;SDS011;1921;49.368;11.068;2023-04-01T21:29:36;48.80;;;44.10;;
3811;SDS011;1921;49.368;11.068;2023-04-01T21:32:40;48.43;;;43.83;;
3811;SDS011;1921;49.368;11.068;2023-04-01T21:38:30;48.57;;;43.90;;
3811;SDS011;1921;49.368;11.068;2023-04-01T21:41:25;48.90;;;44.20;;
3811;SDS011;1921;49.368;11.068;2023-04-01T21:58:46;48.80;;;44.10;;
3811;SDS011;1921;49.368;11.068;2023-04-01T22:13:10;48.60;;;43.90;;
3811;SDS011;1921;49.368;11.068;2023-04-01T22:24:17;48.70;;;44.00;;
3811;SDS011;1921;49.368;11.068;2023-04-01T22:27:33;49.67;;;44.33;;
3811;SDS011;1921;49.368;11.068;2023-04-01T22:32:49;48.70;;;43.97;;
3811;SDS011;1921;49.368;11.068;2023-04-01T22:35:44;48.80;;;44.03;;
3811;SDS011;1921;49.368;11.068;2023-04-01T22:44:46;48.63;;;44.03;;
3811;SDS011;1921;49.368;11.068;2023-04-01T22:56:21;49.37;;;44.37;;
3811;SDS011;1921;49.368;11.068;2023-04-01T22:59:10;48.83;;;44.07;;
3811;SDS011;1921;49.368;11.068;2023-04-01T23:02:00;48.60;;;44.00;;
3811;SDS011;1921;49.368;11.068;2023-04-01T23:04:39;48.57;;;43.97;;
3811;SDS011;1921;49.368;11.068;2023-04-01T23:07:41;52.60;;;44.00;;
3811;SDS011;1921;49.368;11.068;2023-04-01T23:13:13;48.97;;;44.27;;
3811;SDS011;1921;49.368;11.068;2023-04-01T23:15:47;48.80;;;44.10;;
3811;SDS011;1921;49.368;11.068;2023-04-01T23:18:20;48.70;;;44.00;;
3811;SDS011;1921;49.368;11.068;2023-04-01T23:28:55;49.03;;;44.33;;
3811;SDS011;1921;49.368;11.068;2023-04-01T23:36:46;49.57;;;44.47;;
3811;SDS011;1921;49.368;11.068;2023-04-01T23:39:20;49.13;;;44.43;;
3811;SDS011;1921;49.368;11.068;2023-04-01T23:41:51;49.40;;;44.50;;
3811;SDS011;1921;49.368;11.068;2023-04-01T23:44:21;49.13;;;44.40;;
3811;SDS011;1921;49.368;11.068;2023-04-01T23:46:52;48.80;;;44.10;;
3811;SDS011;1921;49.368;11.068;2023-04-01T23:49:21;49.30;;;44.50;;
3811;SDS011;1921;49.368;11.068;2023-04-01T23:57:36;49.07;;;44.27;;
